createdAt,value
2018-10-21T00:01:07.258Z,99683.89
2018-10-21T00:03:36.555Z,99688.06
2018-10-21T00:06:05.932Z,99686.75
2018-10-21T00:08:35.159Z,99685.22
2018-10-21T00:11:04.798Z,99694.47
2018-10-21T00:13:34.053Z,99690.55
2018-10-21T00:16:03.479Z,99690.67
2018-10-21T00:18:32.881Z,99687.70
2018-10-21T00:21:02.223Z,99684.97
2018-10-21T00:23:31.584Z,99681.04
2018-10-21T00:26:00.858Z,99678.65
2018-10-21T00:28:30.511Z,99678.91
2018-10-21T00:30:59.727Z,99676.38
2018-10-21T00:33:29.086Z,99679.34
2018-10-21T00:35:58.331Z,99679.09
2018-10-21T00:38:27.621Z,99682.54
2018-10-21T00:40:57.089Z,99684.45
2018-10-21T00:43:26.489Z,99677.78
2018-10-21T00:45:55.727Z,99674.94
2018-10-21T00:48:25.091Z,99681.23
2018-10-21T00:50:54.498Z,99678.72
2018-10-21T00:53:23.971Z,99691.02
2018-10-21T00:55:53.460Z,99680.42
2018-10-21T00:58:22.897Z,99676.52
2018-10-21T01:00:52.405Z,99675.93
2018-10-21T01:03:21.910Z,99679.09
2018-10-21T01:05:51.307Z,99674.83
2018-10-21T01:08:20.543Z,99669.00
2018-10-21T01:10:50.007Z,99671.41
2018-10-21T01:13:19.414Z,99672.45
2018-10-21T01:15:48.602Z,99669.52
2018-10-21T01:18:17.846Z,99674.59
2018-10-21T01:20:47.358Z,99676.81
2018-10-21T01:23:16.579Z,99670.67
2018-10-21T01:25:46.013Z,99690.91
2018-10-21T01:28:15.270Z,99684.72
2018-10-21T01:30:44.609Z,99684.36
2018-10-21T01:33:14.592Z,99685.42
2018-10-21T01:35:45.462Z,99684.38
2018-10-21T01:38:14.875Z,99681.27
2018-10-21T01:40:45.290Z,99685.08
2018-10-21T01:43:16.283Z,99692.80
2018-10-21T01:45:45.835Z,99688.06
2018-10-21T01:48:17.797Z,99687.33
2018-10-21T01:50:47.302Z,99689.94
2018-10-21T01:53:17.729Z,99685.78
2018-10-21T01:55:46.935Z,99689.94
2018-10-21T01:58:16.324Z,99682.78
2018-10-21T02:00:45.726Z,99689.55
2018-10-21T02:03:15.457Z,99677.06
2018-10-21T02:05:45.597Z,99670.43
2018-10-21T02:08:15.057Z,99674.67
2018-10-21T02:10:44.339Z,99666.44
2018-10-21T02:13:13.759Z,99664.84
2018-10-21T02:15:43.205Z,99665.31
2018-10-21T02:18:12.668Z,99664.15
2018-10-21T02:20:42.074Z,99671.69
2018-10-21T02:23:11.357Z,99666.08
2018-10-21T02:25:40.625Z,99656.84
2018-10-21T02:28:10.051Z,99661.17
2018-10-21T02:30:39.470Z,99664.09
2018-10-21T02:33:08.780Z,99658.73
2018-10-21T02:35:38.173Z,99664.98
2018-10-21T02:38:07.675Z,99658.23
2018-10-21T02:41:45.420Z,99657.14
2018-10-21T02:44:16.834Z,99654.41
2018-10-21T02:46:46.960Z,99660.22
2018-10-21T02:49:16.915Z,99657.59
2018-10-21T02:51:51.542Z,99653.94
2018-10-21T02:54:24.040Z,99661.38
2018-10-21T02:56:53.457Z,99650.58
2018-10-21T02:59:23.363Z,99652.37
2018-10-21T03:01:52.684Z,99650.05
2018-10-21T03:04:22.283Z,99647.17
2018-10-21T03:06:51.990Z,99645.86
2018-10-21T03:09:21.308Z,99647.17
2018-10-21T03:11:50.691Z,99647.17
2018-10-21T03:14:19.929Z,99648.58
2018-10-21T03:16:49.243Z,99649.38
2018-10-21T03:19:18.593Z,99640.86
2018-10-21T03:21:47.826Z,99639.33
2018-10-21T03:24:17.372Z,99639.17
2018-10-21T03:26:47.679Z,99638.64
2018-10-21T03:29:16.943Z,99645.10
2018-10-21T03:31:46.153Z,99637.34
2018-10-21T03:34:15.626Z,99639.97
2018-10-21T03:36:45.021Z,99637.09
2018-10-21T03:39:14.417Z,99636.76
2018-10-21T03:41:43.587Z,99633.30
2018-10-21T03:44:12.927Z,99344.22
2018-10-21T03:46:42.423Z,99637.61
2018-10-21T03:49:11.922Z,99634.44
2018-10-21T03:51:41.103Z,99634.20
2018-10-21T03:54:10.519Z,99620.08
2018-10-21T03:56:39.719Z,99616.02
2018-10-21T03:59:09.116Z,99620.14
2018-10-21T04:01:38.519Z,99615.27
2018-10-21T04:04:08.077Z,99611.80
2018-10-21T04:06:37.305Z,99623.59
2018-10-21T04:09:08.110Z,99614.83
2018-10-21T04:11:37.456Z,99618.67
2018-10-21T04:14:06.861Z,99625.95
2018-10-21T04:16:36.122Z,99628.69
2018-10-21T04:19:05.628Z,99622.58
2018-10-21T04:21:34.962Z,99621.48
2018-10-21T04:24:04.230Z,99621.84
2018-10-21T04:26:33.457Z,99635.05
2018-10-21T04:29:02.859Z,99637.39
2018-10-21T04:31:32.160Z,99633.08
2018-10-21T04:34:01.509Z,99628.03
2018-10-21T04:36:32.902Z,99631.67
2018-10-21T04:40:12.840Z,99621.59
2018-10-21T04:42:42.074Z,99629.91
2018-10-21T04:45:12.237Z,99623.14
2018-10-21T04:47:41.688Z,99624.12
2018-10-21T04:50:11.566Z,99620.58
2018-10-21T04:52:40.845Z,99633.56
2018-10-21T04:55:12.160Z,99635.94
2018-10-21T04:57:42.482Z,99631.41
2018-10-21T05:00:17.787Z,99630.93
2018-10-21T05:02:47.106Z,99639.84
2018-10-21T05:05:16.696Z,99639.01
2018-10-21T05:07:46.035Z,99640.41
2018-10-21T05:10:28.042Z,99641.87
2018-10-21T05:12:57.547Z,99636.50
2018-10-21T05:15:27.942Z,99633.10
2018-10-21T05:17:57.650Z,99630.06
2018-10-21T05:20:27.153Z,99629.75
2018-10-21T05:22:56.831Z,99626.86
2018-10-21T05:25:26.368Z,99623.47
2018-10-21T05:27:55.916Z,99626.34
2018-10-21T05:30:25.319Z,99631.31
2018-10-21T05:32:54.677Z,99625.27
2018-10-21T05:35:24.178Z,99624.12
2018-10-21T05:37:53.640Z,99630.03
2018-10-21T05:40:23.732Z,99633.06
2018-10-21T05:42:53.116Z,99631.88
2018-10-21T05:45:22.605Z,99634.33
2018-10-21T05:47:52.012Z,99631.91
2018-10-21T05:50:21.406Z,99637.52
2018-10-21T05:52:50.653Z,99636.02
2018-10-21T05:55:20.109Z,99648.07
2018-10-21T05:57:49.344Z,99645.13
2018-10-21T06:00:20.140Z,99648.94
2018-10-21T06:02:49.571Z,99645.27
2018-10-21T06:05:35.364Z,99656.09
2018-10-21T06:08:04.729Z,99652.31
2018-10-21T06:10:34.337Z,99657.02
2018-10-21T06:13:03.841Z,99664.49
2018-10-21T06:15:33.240Z,99664.80
2018-10-21T06:18:03.395Z,99667.03
2018-10-21T06:20:37.185Z,99672.43
2018-10-21T06:23:06.438Z,99681.73
2018-10-21T06:25:35.867Z,99670.61
2018-10-21T06:28:05.588Z,99679.07
2018-10-21T06:30:34.975Z,99675.69
2018-10-21T06:33:04.416Z,99676.48
2018-10-21T06:35:33.780Z,99681.59
2018-10-21T06:38:03.080Z,99688.13
2018-10-21T06:40:32.583Z,99692.23
2018-10-21T06:43:02.055Z,99696.67
2018-10-21T06:45:31.557Z,99706.34
2018-10-21T06:48:00.848Z,99698.47
2018-10-21T06:50:30.190Z,99696.00
2018-10-21T06:52:59.696Z,99700.44
2018-10-21T06:55:29.197Z,99699.34
2018-10-21T06:57:58.601Z,99702.70
2018-10-21T07:00:28.105Z,99695.12
2018-10-21T07:02:57.507Z,99697.38
2018-10-21T07:05:37.896Z,99696.55
2018-10-21T07:08:07.269Z,99695.89
2018-10-21T07:10:36.671Z,99696.09
2018-10-21T07:13:06.381Z,99692.84
2018-10-21T07:15:35.786Z,99690.25
2018-10-21T07:18:05.202Z,99688.78
2018-10-21T07:20:34.431Z,99687.47
2018-10-21T07:23:03.941Z,99629.28
2018-10-21T07:25:33.796Z,99687.78
2018-10-21T07:28:03.145Z,99682.98
2018-10-21T07:30:32.350Z,99689.07
2018-10-21T07:33:01.572Z,99698.55
2018-10-21T07:35:31.003Z,99690.44
2018-10-21T07:38:00.502Z,99692.98
2018-10-21T07:40:29.743Z,99697.92
2018-10-21T07:42:59.000Z,99706.34
2018-10-21T07:45:28.237Z,99701.91
2018-10-21T07:47:57.464Z,99702.50
2018-10-21T07:50:26.894Z,99701.70
2018-10-21T07:52:56.400Z,99710.27
2018-10-21T07:55:25.824Z,99716.97
2018-10-21T07:57:55.108Z,99709.16
2018-10-21T08:00:24.423Z,99714.34
2018-10-21T08:02:53.627Z,99714.66
2018-10-21T08:05:34.260Z,99718.29
2018-10-21T08:08:16.203Z,99716.69
2018-10-21T08:10:45.519Z,99710.94
2018-10-21T08:13:16.024Z,99714.44
2018-10-21T08:15:45.897Z,99719.41
2018-10-21T08:18:15.823Z,99720.34
2018-10-21T08:20:46.179Z,99724.28
2018-10-21T08:23:16.723Z,99721.72
2018-10-21T08:25:47.393Z,99719.98
2018-10-21T08:28:16.712Z,99722.42
2018-10-21T08:30:45.991Z,99720.41
2018-10-21T08:33:15.291Z,99717.45
2018-10-21T08:35:44.558Z,99717.61
2018-10-21T08:38:13.798Z,99716.99
2018-10-21T08:40:43.301Z,99715.50
2018-10-21T08:43:12.693Z,99714.02
2018-10-21T08:45:41.940Z,99708.88
2018-10-21T08:48:11.227Z,99713.83
2018-10-21T08:50:40.591Z,99713.31
2018-10-21T08:53:11.222Z,99706.61
2018-10-21T08:55:40.668Z,99695.57
2018-10-21T08:58:10.162Z,99688.48
2018-10-21T09:00:39.706Z,99676.70
2018-10-21T09:03:09.155Z,99677.02
2018-10-21T09:05:38.537Z,99678.72
2018-10-21T09:08:07.967Z,99676.16
2018-10-21T09:10:37.287Z,99677.02
2018-10-21T09:13:06.527Z,99684.52
2018-10-21T09:15:35.966Z,99684.58
2018-10-21T09:18:05.543Z,99686.73
2018-10-21T09:20:34.948Z,99677.84
2018-10-21T09:23:04.302Z,99679.23
2018-10-21T09:25:33.558Z,99670.64
2018-10-21T09:28:03.105Z,99663.06
2018-10-21T09:30:32.555Z,99666.91
2018-10-21T09:33:02.062Z,99664.91
2018-10-21T09:35:31.565Z,99666.20
2018-10-21T09:38:00.762Z,99670.31
2018-10-21T09:40:30.032Z,99664.47
2018-10-21T09:42:59.275Z,99664.29
2018-10-21T09:45:28.765Z,99670.68
2018-10-21T09:47:58.265Z,99663.28
2018-10-21T09:50:27.815Z,99658.06
2018-10-21T09:52:57.488Z,99657.46
2018-10-21T09:55:27.080Z,99656.18
2018-10-21T09:57:56.604Z,99647.71
2018-10-21T10:00:31.111Z,99655.70
2018-10-21T10:03:03.374Z,99659.68
2018-10-21T10:05:32.695Z,99648.77
2018-10-21T10:08:01.953Z,99652.38
2018-10-21T10:10:31.199Z,99649.43
2018-10-21T10:13:00.444Z,99649.76
2018-10-21T10:15:29.979Z,99638.48
2018-10-21T10:17:59.282Z,99642.89
2018-10-21T10:20:28.782Z,99642.89
2018-10-21T10:22:57.978Z,99644.56
2018-10-21T10:25:27.228Z,99644.06
2018-10-21T10:27:56.465Z,99643.47
2018-10-21T10:30:25.857Z,99636.88
2018-10-21T10:35:22.739Z,99640.78
2018-10-21T10:37:51.964Z,99641.04
2018-10-21T10:40:21.286Z,99638.30
2018-10-21T10:42:50.735Z,99629.08
2018-10-21T10:45:20.007Z,99633.16
2018-10-21T10:47:49.441Z,99630.45
2018-10-21T10:50:18.692Z,99625.14
2018-10-21T10:52:48.077Z,99629.67
2018-10-21T10:55:17.574Z,99625.21
2018-10-21T10:57:47.043Z,99616.54
2018-10-21T11:00:16.379Z,99615.61
2018-10-21T11:02:45.568Z,99616.27
2018-10-21T11:05:16.172Z,99613.13
2018-10-21T11:07:45.484Z,99609.77
2018-10-21T11:10:14.836Z,99611.83
2018-10-21T11:12:44.171Z,99606.06
2018-10-21T11:15:13.675Z,99610.10
2018-10-21T11:17:43.913Z,99596.68
2018-10-21T11:20:13.163Z,99599.57
2018-10-21T11:22:42.658Z,99609.41
2018-10-21T11:25:12.097Z,99590.72
2018-10-21T11:27:41.323Z,99590.63
2018-10-21T11:30:11.447Z,99588.85
2018-10-21T11:32:41.044Z,99587.73
2018-10-21T11:35:10.565Z,99587.61
2018-10-21T11:37:40.113Z,99574.48
2018-10-21T11:40:09.505Z,99581.63
2018-10-21T11:42:38.941Z,99581.67
2018-10-21T11:45:08.452Z,99581.34
2018-10-21T11:47:37.845Z,99577.17
2018-10-21T11:50:07.554Z,99575.53
2018-10-21T11:52:37.071Z,99578.67
2018-10-21T11:55:07.583Z,99566.57
2018-10-21T11:57:36.837Z,99565.67
2018-10-21T12:00:07.521Z,99562.91
2018-10-21T12:02:37.022Z,99565.34
2018-10-21T12:05:06.634Z,99558.10
2018-10-21T12:07:36.027Z,99556.09
2018-10-21T12:10:06.093Z,99554.08
2018-10-21T12:12:35.398Z,99546.73
2018-10-21T12:15:04.947Z,99537.14
2018-10-21T12:17:34.556Z,99535.49
2018-10-21T12:20:04.100Z,99534.76
2018-10-21T12:22:33.539Z,99534.86
2018-10-21T12:25:02.889Z,99532.58
2018-10-21T12:27:33.385Z,99529.84
2018-10-21T12:30:02.676Z,99517.47
2018-10-21T12:32:32.197Z,99518.29
2018-10-21T12:35:01.659Z,99524.30
2018-10-21T12:37:31.064Z,99523.33
2018-10-21T12:40:00.444Z,99522.75
2018-10-21T12:42:29.917Z,99523.58
2018-10-21T12:44:59.353Z,99519.27
2018-10-21T12:47:28.732Z,99515.30
2018-10-21T12:49:58.214Z,99518.59
2018-10-21T12:52:27.719Z,99511.27
2018-10-21T12:54:57.135Z,99514.81
2018-10-21T12:57:26.624Z,99512.32
2018-10-21T12:59:56.384Z,99516.91
2018-10-21T13:02:26.181Z,99513.35
2018-10-21T13:04:56.552Z,99511.00
2018-10-21T13:07:27.430Z,99513.41
2018-10-21T13:09:58.060Z,99516.72
2018-10-21T13:12:27.542Z,99512.27
2018-10-21T13:14:56.842Z,99514.11
2018-10-21T13:17:26.135Z,99520.30
2018-10-21T13:19:55.644Z,99509.94
2018-10-21T13:22:25.251Z,99515.09
2018-10-21T13:24:54.672Z,99510.33
2018-10-21T13:27:24.054Z,99507.80
2018-10-21T13:29:53.456Z,99504.45
2018-10-21T13:32:22.753Z,99499.42
2018-10-21T13:34:52.157Z,99495.65
2018-10-21T13:37:21.660Z,99494.14
2018-10-21T13:39:51.200Z,99494.64
2018-10-21T13:42:20.562Z,99486.34
2018-10-21T13:44:50.071Z,99489.71
2018-10-21T13:47:19.476Z,99493.38
2018-10-21T13:49:48.729Z,99490.27
2018-10-21T13:52:18.239Z,99487.55
2018-10-21T13:54:47.839Z,99487.94
2018-10-21T13:57:17.287Z,99488.06
2018-10-21T13:59:46.691Z,99481.80
2018-10-21T14:02:16.502Z,99483.18
2018-10-21T14:04:46.003Z,99473.48
2018-10-21T14:07:15.648Z,99478.80
2018-10-21T14:09:45.115Z,99471.53
2018-10-21T14:12:14.327Z,99472.53
2018-10-21T14:14:43.878Z,99476.28
2018-10-21T14:17:13.218Z,99469.64
2018-10-21T14:19:42.619Z,99466.34
2018-10-21T14:22:12.033Z,99466.82
2018-10-21T14:24:42.065Z,99464.16
2018-10-21T14:27:11.235Z,99464.61
2018-10-21T14:29:40.778Z,99460.31
2018-10-21T14:32:10.144Z,99454.70
2018-10-21T14:34:39.626Z,99452.44
2018-10-21T14:37:09.045Z,99452.65
2018-10-21T14:39:38.549Z,99440.78
2018-10-21T14:42:07.977Z,99437.57
2018-10-21T14:44:37.567Z,99438.88
2018-10-21T14:47:07.371Z,99435.77
2018-10-21T14:49:36.899Z,99431.39
2018-10-21T14:52:07.096Z,99425.48
2018-10-21T14:54:36.705Z,99426.03
2018-10-21T14:57:06.132Z,99418.77
2018-10-21T14:59:35.611Z,99417.29
2018-10-21T15:02:05.280Z,99416.50
2018-10-21T15:04:34.721Z,99411.92
2018-10-21T15:07:04.121Z,99418.20
2018-10-21T15:09:33.621Z,99413.33
2018-10-21T15:12:03.084Z,99414.29
2018-10-21T15:14:32.532Z,99407.04
2018-10-21T15:17:01.933Z,99410.49
2018-10-21T15:19:31.335Z,99412.33
2018-10-21T15:22:00.743Z,99413.38
2018-10-21T15:24:30.076Z,99413.98
2018-10-21T15:26:59.404Z,99412.39
2018-10-21T15:29:28.840Z,99410.58
2018-10-21T15:31:58.272Z,99407.83
2018-10-21T15:34:27.755Z,99411.94
2018-10-21T15:36:56.993Z,99409.06
2018-10-21T15:39:26.448Z,99412.61
2018-10-21T15:41:55.913Z,99406.69
2018-10-21T15:44:25.459Z,99403.83
2018-10-21T15:46:55.093Z,99403.36
2018-10-21T15:49:24.977Z,99398.37
2018-10-21T15:51:54.776Z,99403.98
2018-10-21T15:54:24.499Z,99395.62
2018-10-21T15:56:53.924Z,99398.03
2018-10-21T15:59:23.327Z,99398.44
2018-10-21T16:01:53.010Z,99395.92
2018-10-21T16:04:23.231Z,99397.70
2018-10-21T16:06:52.559Z,99397.45
2018-10-21T16:09:21.830Z,99391.92
2018-10-21T16:11:51.076Z,99397.59
2018-10-21T16:14:20.541Z,99393.39
2018-10-21T16:16:50.241Z,99391.48
2018-10-21T16:19:19.541Z,99399.53
2018-10-21T16:21:49.108Z,99398.91
2018-10-21T16:24:18.855Z,99402.61
2018-10-21T16:26:48.359Z,99411.55
2018-10-21T16:29:21.039Z,99412.75
2018-10-21T16:31:50.525Z,99412.80
2018-10-21T16:34:19.993Z,99415.49
2018-10-21T16:36:49.349Z,99413.96
2018-10-21T16:39:18.893Z,99417.28
2018-10-21T16:41:48.462Z,99414.00
2018-10-21T16:44:17.860Z,99417.62
2018-10-21T16:46:47.570Z,99416.17
2018-10-21T16:49:17.193Z,99418.81
2018-10-21T16:51:46.929Z,99420.14
2018-10-21T16:54:16.340Z,99427.41
2018-10-21T16:56:45.559Z,99427.40
2018-10-21T16:59:15.018Z,99424.59
2018-10-21T17:01:44.454Z,99425.72
2018-10-21T17:04:14.126Z,99431.16
2018-10-21T17:06:43.868Z,99433.93
2018-10-21T17:09:14.795Z,99429.87
2018-10-21T17:11:45.031Z,99429.69
2018-10-21T17:14:14.475Z,99431.83
2018-10-21T17:16:43.887Z,99432.62
2018-10-21T17:19:13.436Z,99436.57
2018-10-21T17:21:42.777Z,99444.48
2018-10-21T17:24:12.440Z,99437.51
2018-10-21T17:26:41.992Z,99437.72
2018-10-21T17:29:11.699Z,99436.75
2018-10-21T17:31:41.101Z,99439.70
2018-10-21T17:34:10.720Z,99429.95
2018-10-21T17:36:40.119Z,99433.02
2018-10-21T17:39:13.678Z,99430.93
2018-10-21T17:41:43.237Z,99431.94
2018-10-21T17:44:13.131Z,99431.77
2018-10-21T17:46:43.004Z,99439.98
2018-10-21T17:49:12.448Z,99443.88
2018-10-21T17:51:42.870Z,99444.05
2018-10-21T17:54:13.512Z,99442.53
2018-10-21T17:56:48.492Z,99438.89
2018-10-21T17:59:17.936Z,99448.91
2018-10-21T18:01:47.769Z,99441.08
2018-10-21T18:04:17.954Z,99448.28
2018-10-21T18:06:47.664Z,99443.33
2018-10-21T18:09:17.181Z,99447.13
2018-10-21T18:11:46.703Z,99443.59
2018-10-21T18:14:16.504Z,99445.19
2018-10-21T18:16:45.982Z,99445.92
2018-10-21T18:19:15.507Z,99448.00
2018-10-21T18:21:45.133Z,99452.27
2018-10-21T18:24:14.572Z,99447.61
2018-10-21T18:26:43.981Z,99452.61
2018-10-21T18:29:14.035Z,99447.13
2018-10-21T18:31:43.439Z,99450.19
2018-10-21T18:34:12.985Z,99446.24
2018-10-21T18:36:42.445Z,99444.38
2018-10-21T18:39:12.279Z,99439.07
2018-10-21T18:41:41.765Z,99439.33
2018-10-21T18:44:11.263Z,99436.70
2018-10-21T18:46:40.768Z,99441.08
2018-10-21T18:49:10.524Z,99437.30
2018-10-21T18:51:40.084Z,99436.25
2018-10-21T18:54:09.489Z,99439.24
2018-10-21T18:56:39.095Z,99441.50
2018-10-21T18:59:08.526Z,99440.20
2018-10-21T19:01:38.007Z,99441.45
2018-10-21T19:04:07.528Z,99438.47
2018-10-21T19:06:36.894Z,99442.70
2018-10-21T19:09:10.226Z,99443.10
2018-10-21T19:11:40.328Z,99439.30
2018-10-21T19:14:10.639Z,99438.88
2018-10-21T19:16:40.679Z,99438.56
2018-10-21T19:19:10.734Z,99437.31
2018-10-21T19:21:40.346Z,99431.88
2018-10-21T19:24:10.448Z,99182.57
2018-10-21T19:26:40.488Z,99432.45
2018-10-21T19:29:09.892Z,99426.66
2018-10-21T19:31:39.244Z,99429.42
2018-10-21T19:34:08.920Z,99426.37
2018-10-21T19:36:38.535Z,99426.62
2018-10-21T19:39:10.043Z,99425.97
2018-10-21T19:41:39.691Z,99423.80
2018-10-21T19:44:10.541Z,99421.36
2018-10-21T19:46:40.428Z,99423.03
2018-10-21T19:49:10.244Z,99418.80
2018-10-21T19:51:39.965Z,99421.77
2018-10-21T19:54:09.278Z,99422.23
2018-10-21T19:56:39.109Z,99424.91
2018-10-21T19:59:08.483Z,99422.55
2018-10-21T20:01:37.981Z,99426.23
2018-10-21T20:04:07.410Z,99432.64
2018-10-21T20:06:37.976Z,99429.42
2018-10-21T20:09:09.732Z,99426.84
2018-10-21T20:11:40.277Z,99426.14
2018-10-21T20:14:09.798Z,99425.95
2018-10-21T20:16:39.202Z,99437.03
2018-10-21T20:19:08.719Z,99438.63
2018-10-21T20:21:38.108Z,99436.31
2018-10-21T20:24:07.613Z,99431.88
2018-10-21T20:26:37.132Z,99433.29
2018-10-21T20:29:06.962Z,99434.44
2018-10-21T20:31:36.560Z,99432.89
2018-10-21T20:34:06.283Z,99436.84
2018-10-21T20:36:35.812Z,99434.50
2018-10-21T20:39:07.800Z,99431.14
2018-10-21T20:41:37.743Z,99427.04
2018-10-21T20:44:07.190Z,99431.75
2018-10-21T20:46:37.041Z,99435.89
2018-10-21T20:49:07.569Z,99437.66
2018-10-21T20:51:37.286Z,99441.71
2018-10-21T20:54:06.754Z,99433.62
2018-10-21T20:56:36.183Z,99442.39
2018-10-21T20:59:05.821Z,99437.39
2018-10-21T21:01:35.174Z,99443.31
2018-10-21T21:04:04.468Z,99439.92
2018-10-21T21:06:33.996Z,99441.80
2018-10-21T21:09:03.501Z,99437.39
2018-10-21T21:11:33.003Z,99448.66
2018-10-21T21:14:02.627Z,99445.96
2018-10-21T21:16:32.321Z,99449.62
2018-10-21T21:19:01.749Z,99450.86
2018-10-21T21:21:31.131Z,99442.59
2018-10-21T21:24:00.462Z,99449.42
2018-10-21T21:26:30.028Z,99442.94
2018-10-21T21:28:59.968Z,99436.91
2018-10-21T21:31:29.553Z,99435.95
2018-10-21T21:33:59.048Z,99439.53
2018-10-21T21:36:28.660Z,99440.36
2018-10-21T21:38:58.268Z,99438.81
2018-10-21T21:41:27.980Z,99445.17
2018-10-21T21:43:58.457Z,99447.99
2018-10-21T21:46:28.786Z,99442.19
2018-10-21T21:48:58.382Z,99442.14
2018-10-21T21:51:28.145Z,99444.97
2018-10-21T21:53:57.850Z,99439.24
2018-10-21T21:56:27.343Z,99442.66
2018-10-21T21:58:56.848Z,99438.88
2018-10-21T22:01:26.658Z,99439.44
2018-10-21T22:03:56.187Z,99437.22
2018-10-21T22:06:25.773Z,99436.34
2018-10-21T22:08:55.383Z,99437.77
2018-10-21T22:11:24.784Z,99447.09
2018-10-21T22:13:55.216Z,99444.23
2018-10-21T22:16:24.588Z,99451.42
2018-10-21T22:18:53.895Z,99455.36
2018-10-21T22:21:23.351Z,99454.05
2018-10-21T22:23:52.675Z,99449.58
2018-10-21T22:26:22.188Z,99449.53
2018-10-21T22:28:51.632Z,99445.66
2018-10-21T22:31:21.035Z,99447.95
2018-10-21T22:33:50.332Z,99451.91
2018-10-21T22:36:19.598Z,99446.85
2018-10-21T22:38:49.032Z,99451.23
2018-10-21T22:41:18.646Z,99448.61
2018-10-21T22:43:47.945Z,99446.91
2018-10-21T22:46:17.480Z,99446.83
2018-10-21T22:48:46.728Z,99445.94
2018-10-21T22:51:16.259Z,99445.60
2018-10-21T22:53:45.581Z,99443.81
2018-10-21T22:56:14.875Z,99447.72
2018-10-21T22:58:44.442Z,99449.59
2018-10-21T23:01:13.707Z,99445.81
2018-10-21T23:03:43.168Z,99445.87
2018-10-21T23:06:12.636Z,99443.25
2018-10-21T23:08:42.071Z,99441.34
2018-10-21T23:11:11.570Z,99444.92
2018-10-21T23:13:40.967Z,99441.82
2018-10-21T23:16:10.447Z,99442.73
2018-10-21T23:18:39.817Z,99440.75
2018-10-21T23:21:09.287Z,99443.95
2018-10-21T23:23:38.484Z,99451.81
2018-10-21T23:26:07.748Z,99454.36
2018-10-21T23:28:37.072Z,99449.64
2018-10-21T23:31:06.576Z,99452.37
2018-10-21T23:33:35.773Z,99450.23
2018-10-21T23:36:05.119Z,99444.31
2018-10-21T23:38:34.577Z,99438.13
2018-10-21T23:41:03.924Z,99433.38
2018-10-21T23:43:33.379Z,99441.95
2018-10-21T23:46:02.710Z,99436.63
2018-10-21T23:48:32.180Z,99434.01
2018-10-21T23:51:01.463Z,99441.20
2018-10-21T23:53:30.634Z,99436.11
2018-10-21T23:56:00.078Z,99432.74
2018-10-21T23:58:29.406Z,99435.97
